createdAt,value
2023-03-28T00:01:20.341Z,100589.72
2023-03-28T00:03:52.574Z,100617.53
2023-03-28T00:06:22.044Z,100615.06
2023-03-28T00:08:51.201Z,100621.84
2023-03-28T00:11:25.983Z,100573.63
2023-03-28T00:14:00.492Z,100613.44
2023-03-28T00:16:33.947Z,100613.44
2023-03-28T00:19:02.875Z,100615.06
2023-03-28T00:21:34.461Z,100591.28
2023-03-28T00:24:06.182Z,100583.66
2023-03-28T00:26:38.448Z,100613.38
2023-03-28T00:29:10.372Z,100614.16
2023-03-28T00:31:40.746Z,100617.53
2023-03-28T00:34:08.333Z,100607.44
2023-03-28T00:36:41.256Z,100618.38
2023-03-28T00:39:11.689Z,100640.34
2023-03-28T00:41:43.597Z,100616.75
2023-03-28T00:44:48.639Z,100627.72
2023-03-28T00:47:33.512Z,100615.06
2023-03-28T00:50:06.440Z,100625.97
2023-03-28T00:52:43.356Z,100620.06
2023-03-28T00:55:15.231Z,100631.06
2023-03-28T00:57:49.160Z,100623.50
2023-03-28T01:00:21.107Z,100625.16
2023-03-28T01:02:57.234Z,100627.72
2023-03-28T01:05:29.833Z,100631.91
2023-03-28T01:08:06.642Z,100623.50
2023-03-28T01:10:34.830Z,100631.13
2023-03-28T01:13:05.738Z,100637.81
2023-03-28T01:15:37.265Z,100628.56
2023-03-28T01:18:11.365Z,100639.50
2023-03-28T01:21:07.870Z,100636.91
2023-03-28T01:24:23.873Z,100640.34
2023-03-28T01:26:56.843Z,100637.81
2023-03-28T01:30:02.441Z,100642.88
2023-03-28T01:33:11.476Z,100618.22
2023-03-28T01:36:04.869Z,100645.41
2023-03-28T01:38:42.658Z,100644.59
2023-03-28T01:41:20.394Z,100652.19
2023-03-28T01:43:57.410Z,100616.56
2023-03-28T01:46:31.610Z,100663.16
2023-03-28T01:49:10.866Z,100657.31
2023-03-28T01:51:58.578Z,100644.63
2023-03-28T01:54:35.111Z,100655.63
2023-03-28T01:57:12.555Z,100644.63
2023-03-28T01:59:47.594Z,100649.72
2023-03-28T02:02:22.919Z,100603.06
2023-03-28T02:04:59.208Z,100655.56
2023-03-28T02:07:28.773Z,100649.72
2023-03-28T02:10:04.401Z,100655.63
2023-03-28T02:12:37.454Z,100648.03
2023-03-28T02:15:13.701Z,100651.47
2023-03-28T02:17:44.717Z,100655.69
2023-03-28T02:20:21.401Z,100652.31
2023-03-28T02:22:53.923Z,100657.38
2023-03-28T02:25:23.399Z,100653.13
2023-03-28T02:27:55.178Z,100653.00
2023-03-28T02:30:32.116Z,100646.31
2023-03-28T02:33:01.129Z,100660.69
2023-03-28T02:35:40.929Z,100602.19
2023-03-28T02:38:16.689Z,100626.75
2023-03-28T02:41:02.238Z,100662.41
2023-03-28T02:43:47.778Z,100667.50
2023-03-28T02:46:31.704Z,100676.81
2023-03-28T02:49:14.513Z,100636.09
2023-03-28T02:51:58.860Z,100680.94
2023-03-28T02:54:34.252Z,100677.53
2023-03-28T02:57:12.205Z,100671.59
2023-03-28T02:59:45.433Z,100681.59
2023-03-28T03:02:19.967Z,100628.97
2023-03-28T03:04:50.321Z,100686.66
2023-03-28T03:07:20.393Z,100682.50
2023-03-28T03:09:55.561Z,100690.06
2023-03-28T03:12:26.405Z,100707.72
2023-03-28T03:14:54.128Z,100697.59
2023-03-28T03:17:25.882Z,100688.34
2023-03-28T03:19:53.616Z,100708.56
2023-03-28T03:22:21.932Z,100696.75
2023-03-28T03:24:53.773Z,100708.56
2023-03-28T03:27:22.410Z,100706.03
2023-03-28T03:29:51.984Z,100709.41
2023-03-28T03:32:23.819Z,100716.16
2023-03-28T03:34:51.553Z,100715.31
2023-03-28T03:37:19.654Z,100709.31
2023-03-28T03:39:51.508Z,100712.72
2023-03-28T03:42:19.274Z,100715.25
2023-03-28T03:44:46.950Z,100728.78
2023-03-28T03:47:21.919Z,100712.75
2023-03-28T03:49:49.646Z,100716.91
2023-03-28T03:52:17.339Z,100649.00
2023-03-28T03:54:47.307Z,100716.88
2023-03-28T03:57:15.531Z,100718.56
2023-03-28T03:59:43.350Z,100700.84
2023-03-28T04:02:15.420Z,100736.34
2023-03-28T04:04:45.729Z,100709.41
2023-03-28T04:07:13.611Z,100725.53
2023-03-28T04:09:45.374Z,100673.75
2023-03-28T04:12:13.358Z,100718.75
2023-03-28T04:14:41.114Z,100729.69
2023-03-28T04:17:15.542Z,100727.94
2023-03-28T04:19:49.662Z,100731.28
2023-03-28T04:22:20.156Z,100728.78
2023-03-28T04:24:53.412Z,100739.72
2023-03-28T04:27:23.371Z,100729.63
2023-03-28T04:29:57.913Z,100722.81
2023-03-28T04:32:27.573Z,100731.38
2023-03-28T04:34:56.768Z,100740.72
2023-03-28T04:37:24.474Z,100735.66
2023-03-28T04:39:55.863Z,100694.06
2023-03-28T04:42:25.780Z,100734.03
2023-03-28T04:44:53.490Z,100747.53
2023-03-28T04:47:23.457Z,100740.75
2023-03-28T04:49:54.210Z,100748.34
2023-03-28T04:52:23.346Z,100746.69
2023-03-28T04:54:53.297Z,100748.34
2023-03-28T04:57:23.402Z,100729.91
2023-03-28T04:59:51.182Z,100712.84
2023-03-28T05:02:20.840Z,100758.72
2023-03-28T05:04:50.807Z,100765.47
2023-03-28T05:07:20.739Z,100764.56
2023-03-28T05:09:49.915Z,100766.13
2023-03-28T05:12:17.621Z,100794.50
2023-03-28T05:14:47.570Z,100787.63
2023-03-28T05:17:15.435Z,100782.53
2023-03-28T05:19:43.174Z,100780.75
2023-03-28T05:22:13.090Z,100783.28
2023-03-28T05:24:42.671Z,100788.25
2023-03-28T05:27:11.739Z,100789.72
2023-03-28T05:29:45.296Z,100796.50
2023-03-28T05:32:13.920Z,100799.06
2023-03-28T05:34:41.805Z,100798.22
2023-03-28T05:37:13.692Z,100805.78
2023-03-28T05:39:41.742Z,100812.38
2023-03-28T05:42:10.854Z,100810.75
2023-03-28T05:44:42.604Z,100816.66
2023-03-28T05:47:10.576Z,100816.56
2023-03-28T05:49:38.431Z,100754.47
2023-03-28T05:52:10.438Z,100837.63
2023-03-28T05:54:40.417Z,100785.91
2023-03-28T05:57:21.776Z,100831.53
2023-03-28T05:59:52.220Z,100780.72
2023-03-28T06:02:21.267Z,100829.09
2023-03-28T06:04:49.503Z,100844.09
2023-03-28T06:07:25.447Z,100833.22
2023-03-28T06:10:03.795Z,100828.84
2023-03-28T06:12:33.358Z,100854.09
2023-03-28T06:15:01.062Z,100852.44
2023-03-28T06:17:31.132Z,100858.38
2023-03-28T06:19:59.031Z,100842.34
2023-03-28T06:22:26.982Z,100848.28
2023-03-28T06:24:55.176Z,100857.53
2023-03-28T06:27:22.882Z,100850.72
2023-03-28T06:29:51.972Z,100849.91
2023-03-28T06:32:24.083Z,100849.22
2023-03-28T06:34:51.824Z,100864.41
2023-03-28T06:37:22.051Z,100818.69
2023-03-28T06:39:55.002Z,100870.78
2023-03-28T06:42:23.386Z,100879.31
2023-03-28T06:44:52.659Z,100887.06
2023-03-28T06:47:20.885Z,100869.06
2023-03-28T06:49:48.568Z,100885.13
2023-03-28T06:52:16.907Z,100841.75
2023-03-28T06:54:48.499Z,100889.50
2023-03-28T06:57:16.969Z,100840.16
2023-03-28T06:59:44.806Z,100839.25
2023-03-28T07:02:20.876Z,100902.97
2023-03-28T07:04:48.686Z,100896.91
2023-03-28T07:07:18.787Z,100905.09
2023-03-28T07:09:50.682Z,100919.38
2023-03-28T07:12:18.844Z,100911.81
2023-03-28T07:14:47.653Z,100914.28
2023-03-28T07:17:16.801Z,100910.91
2023-03-28T07:19:45.481Z,100924.72
2023-03-28T07:22:15.502Z,100928.41
2023-03-28T07:24:45.141Z,100923.78
2023-03-28T07:27:18.084Z,100922.88
2023-03-28T07:29:45.835Z,100933.28
2023-03-28T07:32:16.706Z,100944.91
2023-03-28T07:34:47.792Z,100934.06
2023-03-28T07:37:15.939Z,100952.69
2023-03-28T07:39:45.706Z,100901.94
2023-03-28T07:42:18.532Z,100945.78
2023-03-28T07:44:48.086Z,100933.84
2023-03-28T07:47:18.606Z,100903.22
2023-03-28T07:49:49.794Z,100933.19
2023-03-28T07:52:17.581Z,100956.63
2023-03-28T07:54:47.135Z,100950.00
2023-03-28T07:57:19.362Z,100961.31
2023-03-28T07:59:47.719Z,100965.78
2023-03-28T08:02:17.861Z,100967.16
2023-03-28T08:04:49.252Z,100970.41
2023-03-28T08:07:16.955Z,100970.00
2023-03-28T08:09:44.831Z,100951.16
2023-03-28T08:12:12.676Z,100972.94
2023-03-28T08:14:40.358Z,100970.59
2023-03-28T08:17:10.444Z,100973.16
2023-03-28T08:19:40.447Z,100988.72
2023-03-28T08:22:10.603Z,100992.94
2023-03-28T08:24:38.705Z,100991.72
2023-03-28T08:27:06.664Z,100991.84
2023-03-28T08:29:34.371Z,100942.50
2023-03-28T08:32:05.441Z,100985.56
2023-03-28T08:34:33.406Z,101005.28
2023-03-28T08:37:01.203Z,100977.28
2023-03-28T08:39:30.576Z,101014.09
2023-03-28T08:42:24.022Z,101024.81
2023-03-28T08:45:03.543Z,101024.69
2023-03-28T08:47:32.959Z,101023.28
2023-03-28T08:50:03.592Z,101034.13
2023-03-28T08:52:32.445Z,101035.38
2023-03-28T08:55:07.060Z,101034.34
2023-03-28T08:57:39.034Z,101049.00
2023-03-28T09:00:16.908Z,101051.47
2023-03-28T09:02:45.303Z,101047.03
2023-03-28T09:05:23.247Z,101053.66
2023-03-28T09:07:59.971Z,101051.66
2023-03-28T09:10:36.410Z,101032.81
2023-03-28T09:13:19.514Z,101012.53
2023-03-28T09:16:00.074Z,101069.94
2023-03-28T09:18:45.917Z,101060.22
2023-03-28T09:21:22.817Z,101058.47
2023-03-28T09:24:05.489Z,101070.78
2023-03-28T09:26:40.692Z,101057.63
2023-03-28T09:29:15.493Z,101061.06
2023-03-28T09:31:48.331Z,101050.44
2023-03-28T09:34:24.889Z,101054.63
2023-03-28T09:36:55.661Z,101015.63
2023-03-28T09:39:32.714Z,101067.34
2023-03-28T09:42:09.271Z,101067.34
2023-03-28T09:44:54.240Z,101065.41
2023-03-28T09:47:22.876Z,101088.41
2023-03-28T09:50:05.556Z,101093.19
2023-03-28T09:52:40.294Z,101084.91
2023-03-28T09:55:17.347Z,101107.91
2023-03-28T09:58:03.725Z,101096.06
2023-03-28T10:00:36.162Z,101030.00
2023-03-28T10:03:04.291Z,101110.91
2023-03-28T10:05:35.594Z,101098.56
2023-03-28T10:08:19.866Z,101111.22
2023-03-28T10:11:01.148Z,101119.69
2023-03-28T10:13:39.813Z,101121.50
2023-03-28T10:16:12.949Z,101125.78
2023-03-28T10:18:42.732Z,101123.31
2023-03-28T10:21:15.643Z,101130.78
2023-03-28T10:23:50.891Z,101127.00
2023-03-28T10:26:24.719Z,101104.25
2023-03-28T10:29:00.168Z,101096.44
2023-03-28T10:31:33.981Z,101141.25
2023-03-28T10:34:04.932Z,101132.06
2023-03-28T10:36:37.619Z,101142.25
2023-03-28T10:39:22.570Z,101154.94
2023-03-28T10:41:54.122Z,101152.34
2023-03-28T10:44:30.541Z,101132.41
2023-03-28T10:47:03.491Z,101165.34
2023-03-28T10:49:43.825Z,101159.28
2023-03-28T10:52:23.955Z,101156.16
2023-03-28T10:55:05.319Z,101162.66
2023-03-28T10:57:42.026Z,101177.94
2023-03-28T11:00:17.007Z,101126.25
2023-03-28T11:02:56.486Z,101169.50
2023-03-28T11:05:39.011Z,101172.72
2023-03-28T11:08:26.046Z,101126.88
2023-03-28T11:11:01.885Z,101177.06
2023-03-28T11:13:40.559Z,101172.38
2023-03-28T11:16:20.217Z,101193.34
2023-03-28T11:19:05.753Z,101175.56
2023-03-28T11:21:45.296Z,101189.25
2023-03-28T11:24:28.594Z,101194.38
2023-03-28T11:27:15.492Z,101208.78
2023-03-28T11:29:49.206Z,101211.91
2023-03-28T11:32:25.637Z,101212.88
2023-03-28T11:35:06.560Z,101208.69
2023-03-28T11:37:43.778Z,101151.88
2023-03-28T11:40:19.801Z,101199.69
2023-03-28T11:42:52.745Z,101222.13
2023-03-28T11:45:42.408Z,101198.97
2023-03-28T11:48:22.385Z,101248.38
2023-03-28T11:51:01.534Z,101246.50
2023-03-28T11:53:33.393Z,101251.50
2023-03-28T11:56:06.731Z,101187.91
2023-03-28T11:58:42.881Z,101256.00
2023-03-28T12:01:15.738Z,101265.69
2023-03-28T12:03:58.399Z,101255.75
2023-03-28T12:06:30.833Z,101235.66
2023-03-28T12:09:10.064Z,101262.84
2023-03-28T12:11:43.104Z,101265.91
2023-03-28T12:14:31.113Z,101274.22
2023-03-28T12:17:05.572Z,101272.78
2023-03-28T12:19:39.892Z,101269.25
2023-03-28T12:22:18.152Z,101271.94
2023-03-28T12:24:50.731Z,101279.63
2023-03-28T12:27:28.045Z,101276.28
2023-03-28T12:30:00.544Z,101286.22
2023-03-28T12:32:40.713Z,101301.59
2023-03-28T12:35:18.288Z,101271.59
2023-03-28T12:37:59.742Z,101273.47
2023-03-28T12:40:42.277Z,101316.09
2023-03-28T12:43:13.649Z,101321.28
2023-03-28T12:45:46.455Z,101305.94
2023-03-28T12:48:20.764Z,101302.41
2023-03-28T12:50:54.228Z,101265.19
2023-03-28T12:53:24.262Z,101324.88
2023-03-28T12:55:53.065Z,101301.34
2023-03-28T12:58:29.011Z,101316.13
2023-03-28T13:01:28.752Z,101307.53
2023-03-28T13:04:08.442Z,101324.78
2023-03-28T13:06:50.149Z,101330.97
2023-03-28T13:09:35.749Z,101313.91
2023-03-28T13:12:19.010Z,101314.16
2023-03-28T13:14:59.779Z,101317.44
2023-03-28T13:17:29.062Z,101325.06
2023-03-28T13:20:11.387Z,101301.97
2023-03-28T13:22:49.658Z,101330.03
2023-03-28T13:25:32.618Z,101335.34
2023-03-28T13:28:23.601Z,101323.53
2023-03-28T13:31:11.498Z,101333.75
2023-03-28T13:33:45.206Z,101316.72
2023-03-28T13:36:20.207Z,101337.84
2023-03-28T13:39:00.787Z,101325.25
2023-03-28T13:41:37.025Z,101328.66
2023-03-28T13:44:12.974Z,101330.34
2023-03-28T13:46:44.425Z,101335.47
2023-03-28T13:49:19.174Z,101340.47
2023-03-28T13:51:53.270Z,101393.81
2023-03-28T13:54:23.739Z,101352.81
2023-03-28T13:56:52.464Z,101363.72
2023-03-28T13:59:24.227Z,101369.56
2023-03-28T14:01:55.339Z,101295.69
2023-03-28T14:04:28.343Z,101344.09
2023-03-28T14:06:56.876Z,101283.75
2023-03-28T14:09:38.212Z,101362.09
2023-03-28T14:12:09.519Z,101363.03
2023-03-28T14:14:44.390Z,101347.13
2023-03-28T14:17:16.728Z,101361.53
2023-03-28T14:19:47.921Z,101370.81
2023-03-28T14:22:18.547Z,101356.47
2023-03-28T14:24:52.383Z,101353.28
2023-03-28T14:27:31.613Z,101370.22
2023-03-28T14:30:07.525Z,101345.50
2023-03-28T14:32:47.261Z,101351.50
2023-03-28T14:35:24.944Z,101374.16
2023-03-28T14:37:54.575Z,101378.66
2023-03-28T14:40:33.779Z,101363.38
2023-03-28T14:43:04.542Z,101387.09
2023-03-28T14:45:40.328Z,101333.66
2023-03-28T14:48:10.102Z,101388.94
2023-03-28T14:50:43.889Z,101384.50
2023-03-28T14:53:19.685Z,101384.72
2023-03-28T14:55:57.197Z,101409.22
2023-03-28T14:58:28.180Z,101417.94
2023-03-28T15:01:02.576Z,101422.06
2023-03-28T15:03:33.935Z,101386.00
2023-03-28T15:06:04.802Z,101415.69
2023-03-28T15:08:36.067Z,101425.97
2023-03-28T15:11:12.202Z,101442.59
2023-03-28T15:13:41.473Z,101440.84
2023-03-28T15:16:10.350Z,101449.19
2023-03-28T15:18:44.519Z,101443.06
2023-03-28T15:21:12.680Z,101420.84
2023-03-28T15:23:45.639Z,101444.00
2023-03-28T15:26:21.261Z,101460.97
2023-03-28T15:28:52.265Z,101457.56
2023-03-28T15:31:21.111Z,101458.69
2023-03-28T15:33:50.619Z,101461.38
2023-03-28T15:36:22.629Z,101462.19
2023-03-28T15:38:59.406Z,101471.19
2023-03-28T15:41:44.678Z,101475.06
2023-03-28T15:44:27.505Z,101440.47
2023-03-28T15:46:57.703Z,101485.84
2023-03-28T15:49:26.115Z,101474.88
2023-03-28T15:51:56.833Z,101480.66
2023-03-28T15:54:32.071Z,101479.63
2023-03-28T15:57:03.531Z,101483.84
2023-03-28T15:59:41.060Z,101488.91
2023-03-28T16:02:31.098Z,101484.78
2023-03-28T16:05:04.519Z,101491.69
2023-03-28T16:07:37.197Z,101493.16
2023-03-28T16:10:08.000Z,101492.09
2023-03-28T16:12:37.436Z,101480.84
2023-03-28T16:15:06.465Z,101499.50
2023-03-28T16:17:39.001Z,101499.38
2023-03-28T16:20:15.216Z,101498.44
2023-03-28T16:22:43.251Z,101499.38
2023-03-28T16:25:13.535Z,101504.31
2023-03-28T16:27:43.815Z,101519.56
2023-03-28T16:30:20.709Z,101512.81
2023-03-28T16:32:48.461Z,101507.59
2023-03-28T16:35:18.450Z,101513.66
2023-03-28T16:37:46.325Z,101516.13
2023-03-28T16:40:14.404Z,101514.34
2023-03-28T16:42:45.498Z,101521.75
2023-03-28T16:45:14.886Z,101529.28
2023-03-28T16:47:43.021Z,101528.44
2023-03-28T16:50:11.448Z,101530.72
2023-03-28T16:52:40.636Z,101531.59
2023-03-28T16:55:09.556Z,101537.38
2023-03-28T16:57:37.913Z,101543.25
2023-03-28T17:00:13.680Z,101534.59
2023-03-28T17:02:43.558Z,101546.34
2023-03-28T17:05:11.471Z,101534.41
2023-03-28T17:07:39.260Z,101541.88
2023-03-28T17:10:08.592Z,101541.81
2023-03-28T17:12:36.971Z,101522.88
2023-03-28T17:15:08.505Z,101555.19
2023-03-28T17:17:37.753Z,101519.84
2023-03-28T17:20:06.863Z,101556.72
2023-03-28T17:22:34.959Z,101550.63
2023-03-28T17:25:05.150Z,101544.72
2023-03-28T17:27:32.906Z,101560.72
2023-03-28T17:30:03.599Z,101556.34
2023-03-28T17:32:31.807Z,101566.38
2023-03-28T17:35:01.009Z,101573.25
2023-03-28T17:37:28.879Z,101568.75
2023-03-28T17:39:59.076Z,101579.78
2023-03-28T17:42:26.918Z,101556.34
2023-03-28T17:44:55.039Z,101574.31
2023-03-28T17:47:24.017Z,101534.16
2023-03-28T17:49:52.246Z,101585.38
2023-03-28T17:52:21.405Z,101584.44
2023-03-28T17:54:51.693Z,101548.94
2023-03-28T17:57:20.009Z,101556.53
2023-03-28T17:59:48.347Z,101583.25
2023-03-28T18:02:16.651Z,101595.13
2023-03-28T18:04:44.389Z,101590.44
2023-03-28T18:07:15.978Z,101594.53
2023-03-28T18:09:48.602Z,101592.75
2023-03-28T18:12:18.493Z,101589.91
2023-03-28T18:14:46.559Z,101594.91
2023-03-28T18:17:16.491Z,101598.09
2023-03-28T18:19:46.050Z,101597.16
2023-03-28T18:22:13.741Z,101600.09
2023-03-28T18:24:43.594Z,101597.41
2023-03-28T18:27:14.561Z,101601.47
2023-03-28T18:29:42.258Z,101601.63
2023-03-28T18:32:12.325Z,101598.66
2023-03-28T18:34:43.237Z,101580.81
2023-03-28T18:37:12.361Z,101577.38
2023-03-28T18:39:45.321Z,101574.81
2023-03-28T18:42:16.228Z,101604.22
2023-03-28T18:44:46.678Z,101590.38
2023-03-28T18:47:14.509Z,101596.78
2023-03-28T18:49:44.098Z,101596.44
2023-03-28T18:52:13.922Z,101611.22
2023-03-28T18:54:47.660Z,101606.06
2023-03-28T18:57:18.452Z,101605.31
2023-03-28T18:59:46.967Z,101607.78
2023-03-28T19:02:16.465Z,101573.75
2023-03-28T19:04:44.440Z,101610.53
2023-03-28T19:07:13.450Z,101608.22
2023-03-28T19:09:41.268Z,101611.13
2023-03-28T19:12:11.678Z,101610.53
2023-03-28T19:14:40.685Z,101608.72
2023-03-28T19:17:08.458Z,101604.47
2023-03-28T19:19:38.319Z,101608.94
2023-03-28T19:22:06.566Z,101600.66
2023-03-28T19:24:34.346Z,101579.63
2023-03-28T19:27:05.306Z,101608.53
2023-03-28T19:29:33.448Z,101609.75
2023-03-28T19:32:02.564Z,101576.72
2023-03-28T19:34:32.490Z,101605.91
2023-03-28T19:37:00.402Z,101607.75
2023-03-28T19:39:28.116Z,101605.03
2023-03-28T19:41:58.102Z,101599.19
2023-03-28T19:44:27.796Z,101605.88
2023-03-28T19:46:55.712Z,101605.97
2023-03-28T19:49:26.704Z,101611.44
2023-03-28T19:51:56.265Z,101613.16
2023-03-28T19:54:25.727Z,101616.59
2023-03-28T19:56:55.671Z,101625.41
2023-03-28T19:59:23.639Z,101626.28
2023-03-28T20:01:51.620Z,101613.19
2023-03-28T20:04:21.819Z,101621.78
2023-03-28T20:06:54.515Z,101619.94
2023-03-28T20:09:24.252Z,101567.44
2023-03-28T20:11:52.906Z,101635.22
2023-03-28T20:14:40.944Z,101631.59
2023-03-28T20:17:08.689Z,101636.38
2023-03-28T20:19:39.144Z,101612.88
2023-03-28T20:22:08.567Z,101636.47
2023-03-28T20:24:36.468Z,101638.41
2023-03-28T20:27:04.536Z,101636.47
2023-03-28T20:29:33.064Z,101636.75
2023-03-28T20:32:01.118Z,101575.53
2023-03-28T20:34:29.076Z,101634.75
2023-03-28T20:36:56.931Z,101638.81
2023-03-28T20:39:33.836Z,101632.00
2023-03-28T20:42:07.276Z,101641.50
2023-03-28T20:44:38.247Z,101638.31
2023-03-28T20:47:07.576Z,101604.19
2023-03-28T20:49:36.166Z,101640.59
2023-03-28T20:52:04.035Z,101635.75
2023-03-28T20:54:34.189Z,101640.97
2023-03-28T20:57:02.305Z,101638.00
2023-03-28T20:59:30.207Z,101638.03
2023-03-28T21:01:58.080Z,101635.34
2023-03-28T21:04:29.655Z,101642.34
2023-03-28T21:06:57.554Z,101636.91
2023-03-28T21:09:25.499Z,101638.28
2023-03-28T21:11:56.536Z,101624.28
2023-03-28T21:14:24.225Z,101647.38
2023-03-28T21:16:54.380Z,101647.69
2023-03-28T21:19:22.215Z,101647.03
2023-03-28T21:21:49.979Z,101641.53
2023-03-28T21:24:21.044Z,101643.53
2023-03-28T21:26:50.630Z,101657.16
2023-03-28T21:29:19.800Z,101646.53
2023-03-28T21:31:49.708Z,101650.69
2023-03-28T21:34:19.349Z,101654.09
2023-03-28T21:36:48.527Z,101643.63
2023-03-28T21:39:18.727Z,101657.22
2023-03-28T21:41:48.295Z,101647.81
2023-03-28T21:44:18.966Z,101614.97
2023-03-28T21:46:51.657Z,101657.94
2023-03-28T21:49:19.411Z,101656.22
2023-03-28T21:51:47.171Z,101658.03
2023-03-28T21:54:16.843Z,101657.88
2023-03-28T21:56:46.688Z,101655.59
2023-03-28T21:59:14.496Z,101613.31
2023-03-28T22:01:44.220Z,101653.63
2023-03-28T22:04:15.076Z,101650.81
2023-03-28T22:06:42.788Z,101652.41
2023-03-28T22:09:12.635Z,101652.28
2023-03-28T22:11:42.466Z,101655.44
2023-03-28T22:14:10.269Z,101653.03
2023-03-28T22:16:41.484Z,101662.81
2023-03-28T22:19:11.381Z,101650.38
2023-03-28T22:21:40.545Z,101648.66
2023-03-28T22:24:14.764Z,101646.63
2023-03-28T22:26:46.189Z,101650.22
2023-03-28T22:29:13.917Z,101654.63
2023-03-28T22:31:43.805Z,101647.06
2023-03-28T22:34:15.444Z,101641.09
2023-03-28T22:36:46.470Z,101648.25
2023-03-28T22:39:17.758Z,101644.09
2023-03-28T22:41:49.498Z,101644.44
2023-03-28T22:44:21.440Z,101637.22
2023-03-28T22:47:03.792Z,101650.53
2023-03-28T22:49:34.159Z,101645.06
2023-03-28T22:52:08.421Z,101644.06
2023-03-28T22:54:37.870Z,101648.34
2023-03-28T22:57:07.932Z,101654.13
2023-03-28T22:59:36.526Z,101649.84
2023-03-28T23:02:04.584Z,101655.00
2023-03-28T23:04:34.798Z,101663.00
2023-03-28T23:07:05.613Z,101667.44
2023-03-28T23:09:38.592Z,101665.09
2023-03-28T23:12:08.807Z,101666.69
2023-03-28T23:14:36.380Z,101667.13
2023-03-28T23:17:06.556Z,101670.66
2023-03-28T23:19:35.978Z,101666.06
2023-03-28T23:22:05.038Z,101671.28
2023-03-28T23:24:36.438Z,101673.06
2023-03-28T23:27:06.829Z,101678.91
2023-03-28T23:29:36.922Z,101672.75
2023-03-28T23:32:04.774Z,101681.34
2023-03-28T23:34:35.268Z,101633.59
2023-03-28T23:37:07.161Z,101684.31
2023-03-28T23:39:34.867Z,101684.22
2023-03-28T23:42:04.457Z,101673.34
2023-03-28T23:44:36.433Z,101677.00
2023-03-28T23:47:04.149Z,101666.97
2023-03-28T23:49:31.901Z,101671.22
2023-03-28T23:52:03.721Z,101667.75
2023-03-28T23:54:32.927Z,101666.06
2023-03-28T23:57:00.658Z,101675.19
2023-03-28T23:59:34.679Z,101674.84
